»·PEaware :: N171MA KBIH-KFAT

N171MA :: KBIH-KFAT

FLIGHT INFORMATION

Flight Status: Arrived
Operator: Privately registered:
United States
More flights under this callsign
Pilot: Tim M. (868)
Aircraft: CIRRUS SR-22 TURBO
(S22T)
More flights by this aircraft type
Origin: KBIH Bishop
United States
Destination: KFAT Fresno Yosemite Intl
United States
More flights between these airports :: More routes between these airports
Route: NIKOL V230 FRA
File this flight plan on PilotEdge
Remarks:
Altitude:
(Current/Filed)
16,000ft
Speed:
(Current/Filed)
171kts
Departed: 20-Sep-20 08:00 PM
Arrived: 20-Sep-20 08:57 PM
Distance/Time
Traveled:
75nm/0:57
Distance/Time
To Go:
Arrived

Flight Plot

Page will automatically refresh every two minutes.

Flight plan parsing failed; only flown route is shown


Map Options




Map Legend


Flown Route
Filed Route
Departure Airport
Arrival Airport
Navaid (VOR, NDB)
Fix

Horizontal Profiles

Position Reports

Time Latitude Longitude Heading Altitude Ground
Speed
20-Sep-20 19:40 37.371505 -118.365662 225 4120ft 0kts
20-Sep-20 19:41 37.371505 -118.365662 225 4120ft 0kts
20-Sep-20 19:42 37.371505 -118.365662 225 4120ft 0kts
20-Sep-20 19:43 37.371505 -118.365662 225 4120ft 0kts
20-Sep-20 19:44 37.371505 -118.365662 225 4120ft 0kts
20-Sep-20 19:45 37.371505 -118.365662 225 4120ft 0kts
20-Sep-20 19:46 37.371505 -118.365662 225 4120ft 0kts
20-Sep-20 19:47 37.371505 -118.365662 225 4120ft 0kts
20-Sep-20 19:48 37.371505 -118.365662 225 4120ft 0kts
20-Sep-20 19:49 37.371505 -118.365662 225 4120ft 0kts
20-Sep-20 19:50 37.371505 -118.365662 225 4120ft 0kts
20-Sep-20 19:51 37.371505 -118.365662 225 4120ft 0kts
20-Sep-20 19:52 37.371748 -118.365888 19 4120ft 6kts
20-Sep-20 19:53 37.371614 -118.364184 41 4119ft 6kts
20-Sep-20 19:54 37.373338 -118.361618 13 4116ft 10kts
20-Sep-20 19:55 37.373204 -118.355141 182 4106ft 6kts
20-Sep-20 19:56 37.373224 -118.355054 352 4106ft 0kts
20-Sep-20 19:57 37.373224 -118.355054 352 4106ft 0kts
20-Sep-20 19:58 37.373487 -118.355130 331 4105ft 7kts
20-Sep-20 19:59 37.375011 -118.373994 290 4420ft 102kts
20-Sep-20 20:00 37.410307 -118.374467 12 4632ft 151kts
20-Sep-20 20:01 37.450907 -118.373250 335 5199ft 148kts
20-Sep-20 20:02 37.488176 -118.394710 331 5850ft 143kts
20-Sep-20 20:03 37.521390 -118.414694 330 6826ft 122kts
20-Sep-20 20:04 37.552365 -118.433245 329 7574ft 124kts
20-Sep-20 20:05 37.583338 -118.451847 328 8350ft 123kts
20-Sep-20 20:06 37.614301 -118.470448 328 9112ft 123kts
20-Sep-20 20:07 37.645815 -118.489405 329 9819ft 128kts
20-Sep-20 20:08 37.678452 -118.509011 330 10531ft 132kts
20-Sep-20 20:09 37.712045 -118.529179 331 11274ft 136kts
20-Sep-20 20:10 37.747285 -118.550342 332 11665ft 148kts
20-Sep-20 20:11 37.783496 -118.572087 332 12387ft 144kts
20-Sep-20 20:12 37.820030 -118.594033 333 13108ft 147kts
20-Sep-20 20:13 37.857626 -118.616627 333 13858ft 151kts
20-Sep-20 20:14 37.896164 -118.639793 334 14639ft 154kts
20-Sep-20 20:15 37.935831 -118.663907 333 15365ft 161kts
20-Sep-20 20:16 37.960423 -118.702317 232 16017ft 164kts
20-Sep-20 20:17 37.920092 -118.735583 212 16113ft 183kts
20-Sep-20 20:18 37.878933 -118.777716 216 15983ft 193kts
20-Sep-20 20:19 37.837819 -118.821515 216 15835ft 193kts
20-Sep-20 20:20 37.797191 -118.864911 216 15802ft 189kts
20-Sep-20 20:21 37.757284 -118.907494 216 15794ft 187kts
20-Sep-20 20:22 37.717661 -118.949708 216 15797ft 185kts
20-Sep-20 20:23 37.678735 -118.991131 216 15815ft 182kts
20-Sep-20 20:24 37.639966 -119.032330 215 15787ft 181kts
20-Sep-20 20:25 37.601489 -119.073142 215 15792ft 181kts
20-Sep-20 20:26 37.562726 -119.114206 216 15789ft 182kts
20-Sep-20 20:27 37.523952 -119.155239 215 15789ft 182kts
20-Sep-20 20:28 37.485358 -119.196013 215 15789ft 180kts
20-Sep-20 20:29 37.447090 -119.236404 215 15791ft 178kts
20-Sep-20 20:30 37.409025 -119.276476 215 15776ft 179kts
20-Sep-20 20:31 37.367955 -119.319666 217 14747ft 202kts
20-Sep-20 20:32 37.324556 -119.365300 217 13699ft 198kts
20-Sep-20 20:33 37.280416 -119.411677 219 12056ft 200kts
20-Sep-20 20:34 37.240314 -119.453535 218 11954ft 181kts
20-Sep-20 20:35 37.202079 -119.493619 217 11883ft 178kts
20-Sep-20 20:36 37.164004 -119.533047 217 11835ft 175kts
20-Sep-20 20:37 37.127183 -119.571321 217 11890ft 176kts
20-Sep-20 20:38 37.082628 -119.597485 193 11273ft 197kts
20-Sep-20 20:39 37.026923 -119.613632 192 9886ft 211kts
20-Sep-20 20:40 36.969549 -119.629265 192 8481ft 212kts
20-Sep-20 20:41 36.920144 -119.602815 133 6850ft 211kts
20-Sep-20 20:42 36.880522 -119.550371 133 5250ft 200kts
20-Sep-20 20:43 36.845702 -119.503425 132 4945ft 173kts
20-Sep-20 20:44 36.813904 -119.460476 132 5005ft 166kts
20-Sep-20 20:45 36.782613 -119.418228 132 5017ft 166kts
20-Sep-20 20:46 36.747837 -119.382147 187 4988ft 167kts
20-Sep-20 20:48 36.712483 -119.417090 222 5027ft 164kts
20-Sep-20 20:49 36.677201 -119.456665 222 4253ft 174kts
20-Sep-20 20:50 36.663966 -119.507318 282 3073ft 170kts
20-Sep-20 20:51 36.685598 -119.556869 300 2340ft 149kts
20-Sep-20 20:52 36.707616 -119.596669 303 2215ft 123kts
20-Sep-20 20:53 36.727023 -119.630330 303 1801ft 115kts
20-Sep-20 20:54 36.743998 -119.659655 301 1287ft 87kts
20-Sep-20 20:55 36.757092 -119.682974 300 785ft 79kts
20-Sep-20 20:56 36.769536 -119.704799 302 397ft 74kts
20-Sep-20 20:57 36.773358 -119.713668 272 332ft 6kts
20-Sep-20 20:58 36.773014 -119.717332 305 331ft 14kts
20-Sep-20 20:59 36.777699 -119.725539 305 334ft 37kts
20-Sep-20 21:00 36.778472 -119.730056 301 331ft 0kts
20-Sep-20 21:01 36.778472 -119.730056 301 331ft 0kts
20-Sep-20 21:02 36.778472 -119.730056 301 331ft 0kts

Navigation Log

Ident Type
Flight plan parsing failed, navigation log unavailable